sensor_id;sensor_type;location;lat;lon;timestamp;P1;durP1;ratioP1;P2;durP2;ratioP2
15192;SDS011;7697;51.630;7.484;2024-03-29T00:01:17;3.65;;;1.20;;
15192;SDS011;7697;51.630;7.484;2024-03-29T00:06:18;1.65;;;0.88;;
15192;SDS011;7697;51.630;7.484;2024-03-29T00:11:20;2.20;;;1.00;;
15192;SDS011;7697;51.630;7.484;2024-03-29T00:16:21;2.33;;;1.17;;
15192;SDS011;7697;51.630;7.484;2024-03-29T00:21:22;2.53;;;0.93;;
15192;SDS011;7697;51.630;7.484;2024-03-29T00:26:24;3.72;;;1.15;;
15192;SDS011;7697;51.630;7.484;2024-03-29T00:31:24;1.48;;;1.00;;
15192;SDS011;7697;51.630;7.484;2024-03-29T00:36:25;2.60;;;1.10;;
15192;SDS011;7697;51.630;7.484;2024-03-29T00:41:27;1.35;;;1.02;;
15192;SDS011;7697;51.630;7.484;2024-03-29T00:46:28;2.13;;;0.90;;
15192;SDS011;7697;51.630;7.484;2024-03-29T00:51:29;1.58;;;1.00;;
15192;SDS011;7697;51.630;7.484;2024-03-29T00:56:31;1.30;;;0.90;;
15192;SDS011;7697;51.630;7.484;2024-03-29T01:01:32;0.95;;;0.57;;
15192;SDS011;7697;51.630;7.484;2024-03-29T01:06:32;2.28;;;1.10;;
15192;SDS011;7697;51.630;7.484;2024-03-29T01:11:35;5.60;;;1.27;;
15192;SDS011;7697;51.630;7.484;2024-03-29T01:16:35;3.63;;;1.25;;
15192;SDS011;7697;51.630;7.484;2024-03-29T01:21:36;2.25;;;1.10;;
15192;SDS011;7697;51.630;7.484;2024-03-29T01:26:39;1.58;;;0.80;;
15192;SDS011;7697;51.630;7.484;2024-03-29T01:31:39;1.42;;;0.90;;
15192;SDS011;7697;51.630;7.484;2024-03-29T01:36:40;2.63;;;1.00;;
15192;SDS011;7697;51.630;7.484;2024-03-29T01:41:42;1.27;;;0.85;;
15192;SDS011;7697;51.630;7.484;2024-03-29T01:46:43;2.05;;;1.05;;
15192;SDS011;7697;51.630;7.484;2024-03-29T01:51:47;1.48;;;1.00;;
15192;SDS011;7697;51.630;7.484;2024-03-29T01:56:50;4.70;;;1.33;;
15192;SDS011;7697;51.630;7.484;2024-03-29T02:01:52;2.42;;;1.08;;
15192;SDS011;7697;51.630;7.484;2024-03-29T02:06:54;2.75;;;1.15;;
15192;SDS011;7697;51.630;7.484;2024-03-29T02:11:57;4.50;;;1.30;;
15192;SDS011;7697;51.630;7.484;2024-03-29T02:16:59;1.33;;;1.00;;
15192;SDS011;7697;51.630;7.484;2024-03-29T02:22:01;1.52;;;0.95;;
15192;SDS011;7697;51.630;7.484;2024-03-29T02:27:07;3.90;;;1.10;;
15192;SDS011;7697;51.630;7.484;2024-03-29T02:32:09;3.08;;;1.13;;
15192;SDS011;7697;51.630;7.484;2024-03-29T02:37:11;1.08;;;0.90;;
15192;SDS011;7697;51.630;7.484;2024-03-29T02:42:14;2.20;;;1.40;;
15192;SDS011;7697;51.630;7.484;2024-03-29T02:47:17;3.10;;;1.50;;
15192;SDS011;7697;51.630;7.484;2024-03-29T02:52:18;2.55;;;1.77;;
15192;SDS011;7697;51.630;7.484;2024-03-29T02:57:22;4.45;;;2.05;;
15192;SDS011;7697;51.630;7.484;2024-03-29T03:02:23;3.00;;;1.40;;
15192;SDS011;7697;51.630;7.484;2024-03-29T03:07:25;3.47;;;1.40;;
15192;SDS011;7697;51.630;7.484;2024-03-29T03:12:45;2.17;;;1.15;;
15192;SDS011;7697;51.630;7.484;2024-03-29T03:17:47;1.48;;;1.10;;
15192;SDS011;7697;51.630;7.484;2024-03-29T03:22:50;3.30;;;1.30;;
15192;SDS011;7697;51.630;7.484;2024-03-29T03:27:53;2.42;;;1.30;;
15192;SDS011;7697;51.630;7.484;2024-03-29T03:32:55;1.77;;;1.02;;
15192;SDS011;7697;51.630;7.484;2024-03-29T03:37:57;2.40;;;0.80;;
15192;SDS011;7697;51.630;7.484;2024-03-29T03:43:00;2.08;;;1.08;;
15192;SDS011;7697;51.630;7.484;2024-03-29T03:48:02;3.38;;;1.10;;
15192;SDS011;7697;51.630;7.484;2024-03-29T03:53:04;1.55;;;0.80;;
15192;SDS011;7697;51.630;7.484;2024-03-29T03:58:07;0.85;;;0.55;;
15192;SDS011;7697;51.630;7.484;2024-03-29T04:03:09;1.80;;;1.00;;
15192;SDS011;7697;51.630;7.484;2024-03-29T04:08:11;1.33;;;0.70;;
15192;SDS011;7697;51.630;7.484;2024-03-29T04:13:15;1.10;;;0.50;;
15192;SDS011;7697;51.630;7.484;2024-03-29T04:18:17;1.13;;;0.70;;
15192;SDS011;7697;51.630;7.484;2024-03-29T04:23:19;2.15;;;0.63;;
15192;SDS011;7697;51.630;7.484;2024-03-29T04:28:22;1.73;;;0.85;;
15192;SDS011;7697;51.630;7.484;2024-03-29T04:33:24;1.08;;;0.80;;
15192;SDS011;7697;51.630;7.484;2024-03-29T04:38:27;1.95;;;0.90;;
15192;SDS011;7697;51.630;7.484;2024-03-29T04:43:30;2.22;;;1.10;;
15192;SDS011;7697;51.630;7.484;2024-03-29T04:48:32;3.05;;;1.35;;
15192;SDS011;7697;51.630;7.484;2024-03-29T04:53:34;2.53;;;1.45;;
15192;SDS011;7697;51.630;7.484;2024-03-29T04:58:38;3.58;;;1.98;;
15192;SDS011;7697;51.630;7.484;2024-03-29T05:03:39;3.97;;;1.95;;
15192;SDS011;7697;51.630;7.484;2024-03-29T05:08:41;3.45;;;1.70;;
15192;SDS011;7697;51.630;7.484;2024-03-29T05:13:44;2.10;;;1.17;;
15192;SDS011;7697;51.630;7.484;2024-03-29T05:18:46;2.70;;;1.10;;
15192;SDS011;7697;51.630;7.484;2024-03-29T05:23:48;2.85;;;1.10;;
15192;SDS011;7697;51.630;7.484;2024-03-29T05:28:51;1.73;;;0.70;;
15192;SDS011;7697;51.630;7.484;2024-03-29T05:33:54;1.45;;;0.90;;
15192;SDS011;7697;51.630;7.484;2024-03-29T05:38:56;1.33;;;0.73;;
15192;SDS011;7697;51.630;7.484;2024-03-29T05:43:59;1.70;;;0.80;;
15192;SDS011;7697;51.630;7.484;2024-03-29T05:49:00;1.23;;;0.63;;
15192;SDS011;7697;51.630;7.484;2024-03-29T05:54:02;0.60;;;0.60;;
15192;SDS011;7697;51.630;7.484;2024-03-29T05:59:05;1.30;;;0.82;;
15192;SDS011;7697;51.630;7.484;2024-03-29T06:04:07;2.47;;;1.30;;
15192;SDS011;7697;51.630;7.484;2024-03-29T06:09:15;1.50;;;1.10;;
15192;SDS011;7697;51.630;7.484;2024-03-29T06:14:19;2.03;;;1.40;;
15192;SDS011;7697;51.630;7.484;2024-03-29T06:19:38;2.63;;;1.20;;
15192;SDS011;7697;51.630;7.484;2024-03-29T06:24:42;1.73;;;1.10;;
15192;SDS011;7697;51.630;7.484;2024-03-29T06:29:46;0.80;;;0.80;;
15192;SDS011;7697;51.630;7.484;2024-03-29T06:34:48;2.72;;;1.38;;
15192;SDS011;7697;51.630;7.484;2024-03-29T06:39:50;1.15;;;0.98;;
15192;SDS011;7697;51.630;7.484;2024-03-29T06:44:53;2.53;;;1.20;;
15192;SDS011;7697;51.630;7.484;2024-03-29T06:49:55;3.42;;;1.27;;
15192;SDS011;7697;51.630;7.484;2024-03-29T06:54:57;3.72;;;1.50;;
15192;SDS011;7697;51.630;7.484;2024-03-29T07:00:00;2.38;;;1.40;;
15192;SDS011;7697;51.630;7.484;2024-03-29T07:05:03;2.88;;;1.20;;
15192;SDS011;7697;51.630;7.484;2024-03-29T07:10:08;3.55;;;1.40;;
15192;SDS011;7697;51.630;7.484;2024-03-29T07:15:11;2.05;;;1.23;;
15192;SDS011;7697;51.630;7.484;2024-03-29T07:20:13;3.30;;;1.38;;
15192;SDS011;7697;51.630;7.484;2024-03-29T07:25:15;3.17;;;1.85;;
15192;SDS011;7697;51.630;7.484;2024-03-29T07:30:19;3.38;;;1.70;;
15192;SDS011;7697;51.630;7.484;2024-03-29T07:35:20;2.55;;;1.52;;
15192;SDS011;7697;51.630;7.484;2024-03-29T07:40:22;2.60;;;1.40;;
15192;SDS011;7697;51.630;7.484;2024-03-29T07:45:25;2.88;;;1.58;;
15192;SDS011;7697;51.630;7.484;2024-03-29T07:50:27;2.80;;;1.38;;
15192;SDS011;7697;51.630;7.484;2024-03-29T07:55:29;2.85;;;1.58;;
15192;SDS011;7697;51.630;7.484;2024-03-29T08:00:32;2.42;;;1.30;;
15192;SDS011;7697;51.630;7.484;2024-03-29T08:05:35;1.73;;;1.20;;
15192;SDS011;7697;51.630;7.484;2024-03-29T08:10:37;1.92;;;1.05;;
15192;SDS011;7697;51.630;7.484;2024-03-29T08:15:40;1.92;;;1.10;;
15192;SDS011;7697;51.630;7.484;2024-03-29T08:20:42;1.55;;;1.08;;
15192;SDS011;7697;51.630;7.484;2024-03-29T08:25:44;1.52;;;0.90;;
15192;SDS011;7697;51.630;7.484;2024-03-29T08:30:49;2.03;;;1.60;;
15192;SDS011;7697;51.630;7.484;2024-03-29T08:35:58;2.45;;;1.38;;
15192;SDS011;7697;51.630;7.484;2024-03-29T08:41:00;2.53;;;1.38;;
15192;SDS011;7697;51.630;7.484;2024-03-29T08:46:04;2.05;;;1.20;;
15192;SDS011;7697;51.630;7.484;2024-03-29T08:51:06;1.90;;;1.10;;
15192;SDS011;7697;51.630;7.484;2024-03-29T08:56:07;1.17;;;1.05;;
15192;SDS011;7697;51.630;7.484;2024-03-29T09:01:12;1.33;;;1.00;;
15192;SDS011;7697;51.630;7.484;2024-03-29T09:06:14;1.83;;;1.20;;
15192;SDS011;7697;51.630;7.484;2024-03-29T09:11:16;1.08;;;0.98;;
15192;SDS011;7697;51.630;7.484;2024-03-29T09:16:20;1.35;;;1.15;;
15192;SDS011;7697;51.630;7.484;2024-03-29T09:21:22;1.40;;;0.90;;
15192;SDS011;7697;51.630;7.484;2024-03-29T09:26:24;1.23;;;1.08;;
15192;SDS011;7697;51.630;7.484;2024-03-29T09:31:28;2.72;;;1.50;;
15192;SDS011;7697;51.630;7.484;2024-03-29T09:36:31;1.52;;;1.00;;
15192;SDS011;7697;51.630;7.484;2024-03-29T09:41:33;1.83;;;1.10;;
15192;SDS011;7697;51.630;7.484;2024-03-29T09:46:39;1.63;;;1.40;;
15192;SDS011;7697;51.630;7.484;2024-03-29T09:51:43;1.65;;;1.42;;
15192;SDS011;7697;51.630;7.484;2024-03-29T09:56:46;3.88;;;1.73;;
15192;SDS011;7697;51.630;7.484;2024-03-29T10:01:52;2.45;;;1.77;;
15192;SDS011;7697;51.630;7.484;2024-03-29T10:06:58;1.30;;;0.85;;
15192;SDS011;7697;51.630;7.484;2024-03-29T10:12:16;1.27;;;1.00;;
15192;SDS011;7697;51.630;7.484;2024-03-29T10:17:38;2.00;;;1.10;;
15192;SDS011;7697;51.630;7.484;2024-03-29T11:17:59;1.98;;;0.80;;
15192;SDS011;7697;51.630;7.484;2024-03-29T11:23:37;1.00;;;0.82;;
15192;SDS011;7697;51.630;7.484;2024-03-29T11:28:55;1.10;;;0.90;;
15192;SDS011;7697;51.630;7.484;2024-03-29T11:34:21;1.95;;;1.05;;
15192;SDS011;7697;51.630;7.484;2024-03-29T11:39:29;1.75;;;0.90;;
15192;SDS011;7697;51.630;7.484;2024-03-29T11:44:35;1.85;;;1.30;;
15192;SDS011;7697;51.630;7.484;2024-03-29T11:49:39;0.85;;;0.80;;
15192;SDS011;7697;51.630;7.484;2024-03-29T11:54:42;0.80;;;0.80;;
15192;SDS011;7697;51.630;7.484;2024-03-29T11:59:45;1.20;;;0.95;;
15192;SDS011;7697;51.630;7.484;2024-03-29T12:04:49;2.42;;;1.60;;
15192;SDS011;7697;51.630;7.484;2024-03-29T12:09:51;1.10;;;1.00;;
15192;SDS011;7697;51.630;7.484;2024-03-29T12:14:53;1.00;;;0.90;;
15192;SDS011;7697;51.630;7.484;2024-03-29T12:19:58;2.08;;;1.30;;
15192;SDS011;7697;51.630;7.484;2024-03-29T12:25:05;1.35;;;1.00;;
15192;SDS011;7697;51.630;7.484;2024-03-29T12:30:07;1.60;;;1.45;;
15192;SDS011;7697;51.630;7.484;2024-03-29T12:35:12;2.67;;;1.05;;
15192;SDS011;7697;51.630;7.484;2024-03-29T12:40:15;1.58;;;0.95;;
15192;SDS011;7697;51.630;7.484;2024-03-29T12:45:21;1.45;;;1.30;;
15192;SDS011;7697;51.630;7.484;2024-03-29T12:50:26;2.33;;;0.90;;
15192;SDS011;7697;51.630;7.484;2024-03-29T12:55:29;1.23;;;0.90;;
15192;SDS011;7697;51.630;7.484;2024-03-29T13:00:31;1.45;;;0.82;;
15192;SDS011;7697;51.630;7.484;2024-03-29T13:05:36;1.00;;;0.68;;
15192;SDS011;7697;51.630;7.484;2024-03-29T13:10:40;2.05;;;0.98;;
15192;SDS011;7697;51.630;7.484;2024-03-29T13:15:43;0.73;;;0.73;;
15192;SDS011;7697;51.630;7.484;2024-03-29T13:20:50;1.35;;;1.00;;
15192;SDS011;7697;51.630;7.484;2024-03-29T13:25:54;1.70;;;1.02;;
15192;SDS011;7697;51.630;7.484;2024-03-29T13:30:57;1.00;;;0.90;;
15192;SDS011;7697;51.630;7.484;2024-03-29T13:36:01;1.17;;;0.80;;
15192;SDS011;7697;51.630;7.484;2024-03-29T13:41:04;1.80;;;0.90;;
15192;SDS011;7697;51.630;7.484;2024-03-29T13:46:09;1.10;;;0.73;;
15192;SDS011;7697;51.630;7.484;2024-03-29T13:51:12;1.00;;;0.90;;
15192;SDS011;7697;51.630;7.484;2024-03-29T13:56:14;0.95;;;0.85;;
15192;SDS011;7697;51.630;7.484;2024-03-29T14:01:16;2.35;;;0.95;;
15192;SDS011;7697;51.630;7.484;2024-03-29T14:06:19;1.70;;;1.15;;
15192;SDS011;7697;51.630;7.484;2024-03-29T14:11:21;1.33;;;0.80;;
15192;SDS011;7697;51.630;7.484;2024-03-29T14:16:22;0.80;;;0.80;;
15192;SDS011;7697;51.630;7.484;2024-03-29T14:21:25;0.70;;;0.70;;
15192;SDS011;7697;51.630;7.484;2024-03-29T14:26:27;1.77;;;1.10;;
15192;SDS011;7697;51.630;7.484;2024-03-29T14:31:29;0.70;;;0.70;;
15192;SDS011;7697;51.630;7.484;2024-03-29T14:36:32;1.35;;;0.90;;
15192;SDS011;7697;51.630;7.484;2024-03-29T14:41:34;1.17;;;0.80;;
15192;SDS011;7697;51.630;7.484;2024-03-29T14:46:39;1.60;;;1.00;;
15192;SDS011;7697;51.630;7.484;2024-03-29T14:51:42;2.10;;;1.08;;
15192;SDS011;7697;51.630;7.484;2024-03-29T14:56:45;1.50;;;1.10;;
15192;SDS011;7697;51.630;7.484;2024-03-29T15:01:47;1.00;;;1.00;;
15192;SDS011;7697;51.630;7.484;2024-03-29T15:06:50;1.00;;;0.90;;
15192;SDS011;7697;51.630;7.484;2024-03-29T15:11:52;3.17;;;1.10;;
15192;SDS011;7697;51.630;7.484;2024-03-29T15:16:54;1.05;;;0.95;;
15192;SDS011;7697;51.630;7.484;2024-03-29T15:21:57;1.40;;;1.30;;
15192;SDS011;7697;51.630;7.484;2024-03-29T15:26:59;1.25;;;0.95;;
15192;SDS011;7697;51.630;7.484;2024-03-29T15:32:03;1.08;;;0.90;;
15192;SDS011;7697;51.630;7.484;2024-03-29T15:37:06;1.40;;;1.08;;
15192;SDS011;7697;51.630;7.484;2024-03-29T15:42:08;0.80;;;0.80;;
15192;SDS011;7697;51.630;7.484;2024-03-29T15:47:10;0.98;;;0.90;;
15192;SDS011;7697;51.630;7.484;2024-03-29T15:52:14;2.08;;;0.90;;
15192;SDS011;7697;51.630;7.484;2024-03-29T15:57:16;0.90;;;0.80;;
15192;SDS011;7697;51.630;7.484;2024-03-29T16:02:18;0.90;;;0.80;;
15192;SDS011;7697;51.630;7.484;2024-03-29T16:07:21;1.58;;;1.20;;
15192;SDS011;7697;51.630;7.484;2024-03-29T16:12:23;1.67;;;0.93;;
15192;SDS011;7697;51.630;7.484;2024-03-29T16:17:25;0.73;;;0.73;;
15192;SDS011;7697;51.630;7.484;2024-03-29T16:22:28;2.10;;;1.40;;
15192;SDS011;7697;51.630;7.484;2024-03-29T16:27:30;1.13;;;1.02;;
15192;SDS011;7697;51.630;7.484;2024-03-29T16:32:32;2.65;;;1.50;;
15192;SDS011;7697;51.630;7.484;2024-03-29T16:37:36;1.42;;;1.20;;
15192;SDS011;7697;51.630;7.484;2024-03-29T16:42:38;2.10;;;0.85;;
15192;SDS011;7697;51.630;7.484;2024-03-29T16:47:40;1.65;;;1.10;;
15192;SDS011;7697;51.630;7.484;2024-03-29T16:52:43;2.65;;;1.50;;
15192;SDS011;7697;51.630;7.484;2024-03-29T16:57:45;1.95;;;1.40;;
15192;SDS011;7697;51.630;7.484;2024-03-29T17:02:46;2.85;;;1.65;;
15192;SDS011;7697;51.630;7.484;2024-03-29T17:07:51;1.63;;;1.30;;
15192;SDS011;7697;51.630;7.484;2024-03-29T17:12:53;2.00;;;1.52;;
15192;SDS011;7697;51.630;7.484;2024-03-29T17:17:55;2.10;;;1.40;;
15192;SDS011;7697;51.630;7.484;2024-03-29T17:22:58;1.70;;;1.55;;
15192;SDS011;7697;51.630;7.484;2024-03-29T17:28:00;1.13;;;1.02;;
15192;SDS011;7697;51.630;7.484;2024-03-29T17:33:02;1.15;;;1.05;;
15192;SDS011;7697;51.630;7.484;2024-03-29T17:38:06;1.20;;;1.10;;
15192;SDS011;7697;51.630;7.484;2024-03-29T17:43:07;2.10;;;1.90;;
15192;SDS011;7697;51.630;7.484;2024-03-29T17:48:09;1.75;;;1.23;;
15192;SDS011;7697;51.630;7.484;2024-03-29T17:53:12;1.20;;;1.10;;
15192;SDS011;7697;51.630;7.484;2024-03-29T17:58:14;1.40;;;1.30;;
15192;SDS011;7697;51.630;7.484;2024-03-29T18:03:16;1.50;;;1.30;;
15192;SDS011;7697;51.630;7.484;2024-03-29T18:08:19;1.52;;;1.00;;
15192;SDS011;7697;51.630;7.484;2024-03-29T18:13:21;1.30;;;1.17;;
15192;SDS011;7697;51.630;7.484;2024-03-29T18:18:23;1.85;;;1.38;;
15192;SDS011;7697;51.630;7.484;2024-03-29T18:23:26;1.48;;;1.25;;
15192;SDS011;7697;51.630;7.484;2024-03-29T18:28:28;1.20;;;1.10;;
15192;SDS011;7697;51.630;7.484;2024-03-29T18:33:30;1.13;;;1.02;;
15192;SDS011;7697;51.630;7.484;2024-03-29T18:38:33;1.40;;;1.05;;
15192;SDS011;7697;51.630;7.484;2024-03-29T18:43:36;1.08;;;0.98;;
15192;SDS011;7697;51.630;7.484;2024-03-29T18:48:38;1.10;;;1.00;;
15192;SDS011;7697;51.630;7.484;2024-03-29T18:53:41;1.40;;;1.25;;
15192;SDS011;7697;51.630;7.484;2024-03-29T18:58:44;1.05;;;0.90;;
15192;SDS011;7697;51.630;7.484;2024-03-29T19:03:46;1.33;;;1.10;;
15192;SDS011;7697;51.630;7.484;2024-03-29T19:08:49;1.10;;;0.93;;
15192;SDS011;7697;51.630;7.484;2024-03-29T19:13:51;1.65;;;1.17;;
15192;SDS011;7697;51.630;7.484;2024-03-29T19:18:52;1.15;;;1.05;;
15192;SDS011;7697;51.630;7.484;2024-03-29T19:23:56;1.50;;;1.20;;
15192;SDS011;7697;51.630;7.484;2024-03-29T19:28:58;1.42;;;1.30;;
15192;SDS011;7697;51.630;7.484;2024-03-29T19:33:59;2.65;;;1.13;;
15192;SDS011;7697;51.630;7.484;2024-03-29T19:39:03;1.80;;;1.20;;
15192;SDS011;7697;51.630;7.484;2024-03-29T19:44:04;1.33;;;1.15;;
15192;SDS011;7697;51.630;7.484;2024-03-29T19:49:07;1.75;;;1.17;;
15192;SDS011;7697;51.630;7.484;2024-03-29T19:54:11;1.25;;;1.00;;
15192;SDS011;7697;51.630;7.484;2024-03-29T19:59:12;1.10;;;1.00;;
15192;SDS011;7697;51.630;7.484;2024-03-29T20:04:14;1.77;;;1.42;;
15192;SDS011;7697;51.630;7.484;2024-03-29T20:09:17;3.08;;;1.80;;
15192;SDS011;7697;51.630;7.484;2024-03-29T20:14:19;3.22;;;1.67;;
15192;SDS011;7697;51.630;7.484;2024-03-29T20:19:22;1.73;;;1.30;;
15192;SDS011;7697;51.630;7.484;2024-03-29T20:24:28;1.02;;;0.93;;
15192;SDS011;7697;51.630;7.484;2024-03-29T20:29:31;1.90;;;1.50;;
15192;SDS011;7697;51.630;7.484;2024-03-29T20:34:34;1.25;;;1.00;;
15192;SDS011;7697;51.630;7.484;2024-03-29T20:39:39;1.58;;;1.08;;
15192;SDS011;7697;51.630;7.484;2024-03-29T20:44:41;1.25;;;0.93;;
15192;SDS011;7697;51.630;7.484;2024-03-29T20:49:42;1.65;;;0.88;;
15192;SDS011;7697;51.630;7.484;2024-03-29T20:54:45;0.80;;;0.80;;
15192;SDS011;7697;51.630;7.484;2024-03-29T20:59:47;1.20;;;0.95;;
15192;SDS011;7697;51.630;7.484;2024-03-29T21:04:49;1.50;;;1.10;;
15192;SDS011;7697;51.630;7.484;2024-03-29T21:10:10;1.15;;;0.98;;
15192;SDS011;7697;51.630;7.484;2024-03-29T21:15:12;1.92;;;0.98;;
15192;SDS011;7697;51.630;7.484;2024-03-29T21:20:17;1.00;;;0.90;;
15192;SDS011;7697;51.630;7.484;2024-03-29T21:25:20;1.42;;;1.00;;
15192;SDS011;7697;51.630;7.484;2024-03-29T21:30:23;0.90;;;0.85;;
15192;SDS011;7697;51.630;7.484;2024-03-29T21:35:25;1.27;;;0.90;;
15192;SDS011;7697;51.630;7.484;2024-03-29T21:40:30;1.55;;;1.15;;
15192;SDS011;7697;51.630;7.484;2024-03-29T21:45:32;1.00;;;0.90;;
15192;SDS011;7697;51.630;7.484;2024-03-29T21:50:34;1.08;;;1.00;;
15192;SDS011;7697;51.630;7.484;2024-03-29T21:55:37;1.42;;;1.02;;
15192;SDS011;7697;51.630;7.484;2024-03-29T22:00:39;1.75;;;1.40;;
15192;SDS011;7697;51.630;7.484;2024-03-29T22:05:40;1.73;;;1.30;;
15192;SDS011;7697;51.630;7.484;2024-03-29T22:10:44;1.90;;;1.40;;
15192;SDS011;7697;51.630;7.484;2024-03-29T22:15:45;1.55;;;1.30;;
15192;SDS011;7697;51.630;7.484;2024-03-29T22:20:47;1.60;;;1.10;;
15192;SDS011;7697;51.630;7.484;2024-03-29T22:25:50;1.52;;;1.10;;
15192;SDS011;7697;51.630;7.484;2024-03-29T22:30:52;1.58;;;1.30;;
15192;SDS011;7697;51.630;7.484;2024-03-29T22:35:54;1.02;;;0.82;;
15192;SDS011;7697;51.630;7.484;2024-03-29T22:40:57;3.28;;;2.38;;
15192;SDS011;7697;51.630;7.484;2024-03-29T22:45:59;2.72;;;1.65;;
15192;SDS011;7697;51.630;7.484;2024-03-29T22:51:02;1.88;;;1.20;;
15192;SDS011;7697;51.630;7.484;2024-03-29T22:56:06;1.50;;;1.40;;
15192;SDS011;7697;51.630;7.484;2024-03-29T23:01:07;4.22;;;1.77;;
15192;SDS011;7697;51.630;7.484;2024-03-29T23:06:09;2.88;;;1.90;;
15192;SDS011;7697;51.630;7.484;2024-03-29T23:11:12;3.38;;;2.20;;
15192;SDS011;7697;51.630;7.484;2024-03-29T23:16:14;4.03;;;2.75;;
15192;SDS011;7697;51.630;7.484;2024-03-29T23:21:17;3.53;;;2.30;;
15192;SDS011;7697;51.630;7.484;2024-03-29T23:26:20;4.00;;;2.70;;
15192;SDS011;7697;51.630;7.484;2024-03-29T23:31:22;2.38;;;1.75;;
15192;SDS011;7697;51.630;7.484;2024-03-29T23:36:24;1.77;;;1.27;;
15192;SDS011;7697;51.630;7.484;2024-03-29T23:41:27;1.10;;;0.93;;
15192;SDS011;7697;51.630;7.484;2024-03-29T23:46:29;1.48;;;0.73;;
15192;SDS011;7697;51.630;7.484;2024-03-29T23:51:31;0.80;;;0.80;;
15192;SDS011;7697;51.630;7.484;2024-03-29T23:56:34;0.57;;;0.57;;
